Decoded Metar for LYKV (KRALJEVO/LADEVCI in SERBIA) (IATA:N/A) | Meteo·Mobile Aviation Weather
aviador You're here:

LYKV Decoded Metar

KRALJEVO/LADEVCI in SERBIA
Report Time2019-03-23 08:00:00
UTC Time2019-03-23 08:15:16
Flight Rules vfr VFR
Wind270° at 03 kt
W.Decomp.*RWY 32: 1.8 kt HW 2.4 kt LCW
W.Rank270° ranks 22
Current wind is below 270° avg. (3.7)
Visibility9999 m
Phenomena:N/A
Clouds:N/A
Expected CloudBase > 4,000 ft AGL from Temp-Dew spread
CeilingNone
Temp11°C (ISA -3)
Dew Point01°C (50% RH)
AAT8.1°C
QNH1027 hPa
Density Alt3 ft
Elevation694 ft
Report Wrong Elevation
Raw Report
METAR LYKV 230800Z 27003KT 210V330 CAVOK 11/01 Q1027 NOSIG=

Extra information for LYKV:More info

Metar Taf Metar & Taf Last 4 Metars F.Rules Stats Wind Profile Meteogram Temp Stats Airport Information Weather charts Add Link Nearby VenuesMetar ALERT Operation Metar Decoded Social comments